KGYR/GYR METAR and TAF weather

Enter ICAO airport designator
Station Type Date Time Source
KGYR METAR 2020/02/21 23:47 UTC NOAA

KGYR 212347Z 11013KT 10SM SCT150 SCT200 BKN250 24/05 A3002


Station Type Date Time Source
KGYR Decoded METAR 2020/02/21 23:47 UTC NOAA

Goodyear Municipal, AZ, United States (KGYR) 33-25N 112-23W
Feb 21, 2020 - 06:47 PM EST / 2020.02.21 2347 UTC
Wind: from the ESE (110 degrees) at 15 MPH (13 KT):0
Visibility: 10 mile(s):0
Sky conditions: mostly cloudy
Temperature: 75 F (24 C)
Dew Point: 41 F (5 C)
Relative Humidity: 29%
Pressure (altimeter): 30.02 in. Hg (1016 hPa)
ob: KGYR 212347Z 11013KT 10SM SCT150 SCT200 BKN250 24/05 A3002
cycle: 0

Station Type Date Time Source
KGYR TAF UTC NOAA

Error!

Example: see airport list